Nearby METAR Reports

 

GCLP - Las Palmas/Gando, Spain
Distance from station: NE 26km
Updated: 24/05/2018 13:30
Mostly cloudy
Mostly cloudy
 Wind from S
Wind: S 11 km/h
Temperature: 22°C
Dew Point: 13°C
Humidity: 57%
Barometer: 1018 hPa
Clouds: Mostly cloudy
Visibility: 10 km
Cloud details: Few Clouds 1067 m
Mostly cloudy 1372 m
2018/05/24 13:30 GCLP 241330Z 19006KT 140V230 9999 FEW035 BKN045 22/13 Q1018 WS ALL RWY NOSIG
GCTS - Tenerife Sur/Rei, Spain
Distance from station: WNW 102km
Updated: 24/05/2018 13:30
Mostly cloudy
Mostly cloudy
 Wind from SSW
Wind: SSW 15 km/h
Temperature: 21°C
Dew Point: 13°C
Humidity: 60%
Barometer: 1019 hPa
Clouds: Mostly cloudy
Visibility: 10 km
Cloud details: Few Clouds 1128 m
Mostly cloudy 1676 m
2018/05/24 13:30 GCTS 241330Z 21008KT 180V240 9999 FEW037 BKN055 21/13 Q1019 NOSIG
 
GCXO - Tenerife/Los Rod, Spain
Distance from station: NW 110km
Updated: 24/05/2018 13:30
Mostly cloudy
Mostly cloudy
 Wind from NW
Wind: NW 19 km/h
Temperature: 17°C
Dew Point: 12°C
Humidity: 73%
Barometer: 1020 hPa
Clouds: Mostly cloudy
Visibility: 10 km
Cloud details: Few Clouds 213 m
Mostly cloudy 610 m
2018/05/24 13:30 GCXO 241330Z 31010KT 280V340 9999 FEW007 BKN020 17/12 Q1020 NOSIG
GCGM - La Gomera Arpt, Spain
Distance from station: W 164km
Updated: 24/05/2018 13:30
Partly cloudy
Partly cloudy
 Wind from SSW
Wind: SSW 7 km/h
Temperature: 20°C
Dew Point: 12°C
Humidity: 60%
Barometer: 1019 hPa
Clouds: Partly cloudy
Visibility: 10 km
Cloud details: Partly cloudy 1158 m
2018/05/24 13:30 GCGM 241330Z 21004KT 150V260 9999 SCT038 20/12 Q1019 RMK R09/18003KT 130V240 ARP/19004KT 150V250
 
GCFV - Fuerteventura Ar, Spain
Distance from station: ENE 183km
Updated: 24/05/2018 13:30
Partly cloudy
Partly cloudy
 Wind from varies
Wind: varies 13 km/h
Temperature: 23°C
Dew Point: 12°C
Humidity: 50%
Barometer: 1017 hPa
Clouds: Partly cloudy
Visibility: 10 km
Cloud details: Few Clouds 1158 m
Partly cloudy 1341 m
2018/05/24 13:30 GCFV 241330Z VRB07KT 9999 FEW038 SCT044 23/12 Q1017
GCHI - Hierro Airport, Spain
Distance from station: W 226km
Updated: 24/05/2018 13:30
Partly cloudy
Partly cloudy
 Wind from NNE
Wind: NNE 13 km/h
Temperature: 22°C
Dew Point: 13°C
Humidity: 57%
Barometer: 1020 hPa
Clouds: Partly cloudy
Visibility: 10 km
Cloud details: Few Clouds 762 m
Partly cloudy 1524 m
2018/05/24 13:30 GCHI 241330Z 03007KT 9999 FEW025 SCT050 22/13 Q1020
 
GCLA - La Palma Airport, Spain
Distance from station: WNW 233km
Updated: 24/05/2018 13:30
Mostly cloudy
Mostly cloudy
 Wind from ENE
Wind: ENE 13 km/h, Gust: 31 km/h
Temperature: 22°C
Dew Point: 14°C
Humidity: 61%
Barometer: 1019 hPa
Clouds: Mostly cloudy
Visibility: 10 km
Cloud details: Mostly cloudy 1524 m
2018/05/24 13:30 GCLA 241330Z 06007G17KT 340V110 9999 BKN050 22/14 Q1019
GCRR - Arrecife/Lanzaro, Spain
Distance from station: NE 234km
Updated: 24/05/2018 13:30
Partly cloudy
Partly cloudy
 Wind from NW
Wind: NW 26 km/h, Gust: 46 km/h
Temperature: 23°C
Dew Point: 12°C
Humidity: 50%
Barometer: 1017 hPa
Clouds: Partly cloudy
Visibility: 10 km
Cloud details: Partly cloudy 1372 m
2018/05/24 13:30 GCRR 241330Z 31014G25KT 250V350 9999 SCT045 23/12 Q1017
 
LPMA - Funchal/Madeira, Portugal
Distance from station: NNW 556km
Updated: 24/05/2018 13:30
Partly cloudy
Partly cloudy
 Wind from N
Wind: N 22 km/h, Gust: 41 km/h
Temperature: 20°C
Dew Point: 11°C
Humidity: 56%
Barometer: 1018 hPa
Clouds: Partly cloudy
Visibility: 10 km
Cloud details: Partly cloudy 457 m
2018/05/24 13:30 LPMA 241330Z 36012G22KT 280V040 9999 SCT015 20/11 Q1018
LPPS - Porto Santo Isla, Portugal
Distance from station: N 594km
Updated: 24/05/2018 13:30
Few Clouds
Few Clouds
 Wind from NNW
Wind: NNW 35 km/h
Temperature: 20°C
Dew Point: 14°C
Humidity: 69%
Barometer: 1018 hPa
Clouds: Few Clouds
Visibility: 10 km
Cloud details: Partly cloudy 427 m
Few Clouds 549 m
2018/05/24 13:30 LPPS 241330Z 34019KT 9999 SCT014 FEW018TCU 20/14 Q1018